sensor_id;sensor_type;location;lat;lon;timestamp;P1;durP1;ratioP1;P2;durP2;ratioP2
842;SDS011;407;48.884;9.126;2023-04-24T00:01:24;4.30;;;0.70;;
842;SDS011;407;48.884;9.126;2023-04-24T00:03:50;6.20;;;0.80;;
842;SDS011;407;48.884;9.126;2023-04-24T00:06:16;7.30;;;0.90;;
842;SDS011;407;48.884;9.126;2023-04-24T00:08:42;5.20;;;0.90;;
842;SDS011;407;48.884;9.126;2023-04-24T00:11:07;6.10;;;0.93;;
842;SDS011;407;48.884;9.126;2023-04-24T00:13:34;5.65;;;0.90;;
842;SDS011;407;48.884;9.126;2023-04-24T00:16:00;4.70;;;1.00;;
842;SDS011;407;48.884;9.126;2023-04-24T00:18:25;4.85;;;0.60;;
842;SDS011;407;48.884;9.126;2023-04-24T00:20:51;4.50;;;0.70;;
842;SDS011;407;48.884;9.126;2023-04-24T00:23:17;5.00;;;0.80;;
842;SDS011;407;48.884;9.126;2023-04-24T00:25:43;4.57;;;0.80;;
842;SDS011;407;48.884;9.126;2023-04-24T00:28:08;5.75;;;0.70;;
842;SDS011;407;48.884;9.126;2023-04-24T00:30:34;5.20;;;0.90;;
842;SDS011;407;48.884;9.126;2023-04-24T00:33:00;4.20;;;0.70;;
842;SDS011;407;48.884;9.126;2023-04-24T00:35:25;4.33;;;0.70;;
842;SDS011;407;48.884;9.126;2023-04-24T00:37:51;4.60;;;0.80;;
842;SDS011;407;48.884;9.126;2023-04-24T00:40:16;7.68;;;0.98;;
842;SDS011;407;48.884;9.126;2023-04-24T00:42:43;4.70;;;0.80;;
842;SDS011;407;48.884;9.126;2023-04-24T00:45:09;4.50;;;0.80;;
842;SDS011;407;48.884;9.126;2023-04-24T00:47:34;5.30;;;0.80;;
842;SDS011;407;48.884;9.126;2023-04-24T00:50:02;4.70;;;0.80;;
842;SDS011;407;48.884;9.126;2023-04-24T00:52:31;5.30;;;0.60;;
842;SDS011;407;48.884;9.126;2023-04-24T00:54:57;4.70;;;0.70;;
842;SDS011;407;48.884;9.126;2023-04-24T00:57:23;5.50;;;0.80;;
842;SDS011;407;48.884;9.126;2023-04-24T00:59:50;4.70;;;0.90;;
842;SDS011;407;48.884;9.126;2023-04-24T01:02:17;4.30;;;0.80;;
842;SDS011;407;48.884;9.126;2023-04-24T01:04:43;4.10;;;0.60;;
842;SDS011;407;48.884;9.126;2023-04-24T01:07:09;8.40;;;1.08;;
842;SDS011;407;48.884;9.126;2023-04-24T01:09:42;5.00;;;0.80;;
842;SDS011;407;48.884;9.126;2023-04-24T01:12:12;5.25;;;0.65;;
842;SDS011;407;48.884;9.126;2023-04-24T01:14:37;5.10;;;0.60;;
842;SDS011;407;48.884;9.126;2023-04-24T01:17:03;5.70;;;0.90;;
842;SDS011;407;48.884;9.126;2023-04-24T01:19:29;4.50;;;0.70;;
842;SDS011;407;48.884;9.126;2023-04-24T01:21:54;4.90;;;0.70;;
842;SDS011;407;48.884;9.126;2023-04-24T01:24:23;5.10;;;0.70;;
842;SDS011;407;48.884;9.126;2023-04-24T01:26:49;4.65;;;0.70;;
842;SDS011;407;48.884;9.126;2023-04-24T01:29:15;6.20;;;0.90;;
842;SDS011;407;48.884;9.126;2023-04-24T01:31:40;5.00;;;0.70;;
842;SDS011;407;48.884;9.126;2023-04-24T01:34:06;4.50;;;0.90;;
842;SDS011;407;48.884;9.126;2023-04-24T01:36:33;4.30;;;0.70;;
842;SDS011;407;48.884;9.126;2023-04-24T01:39:00;8.45;;;0.90;;
842;SDS011;407;48.884;9.126;2023-04-24T01:41:26;4.20;;;0.70;;
842;SDS011;407;48.884;9.126;2023-04-24T01:43:52;5.60;;;0.80;;
842;SDS011;407;48.884;9.126;2023-04-24T01:46:18;6.30;;;0.90;;
842;SDS011;407;48.884;9.126;2023-04-24T01:48:45;5.30;;;0.75;;
842;SDS011;407;48.884;9.126;2023-04-24T01:51:10;4.10;;;0.70;;
842;SDS011;407;48.884;9.126;2023-04-24T01:53:36;4.80;;;0.77;;
842;SDS011;407;48.884;9.126;2023-04-24T01:56:02;4.30;;;0.80;;
842;SDS011;407;48.884;9.126;2023-04-24T01:58:28;4.20;;;0.60;;
842;SDS011;407;48.884;9.126;2023-04-24T02:00:56;4.10;;;0.63;;
842;SDS011;407;48.884;9.126;2023-04-24T02:03:23;7.85;;;1.20;;
842;SDS011;407;48.884;9.126;2023-04-24T02:05:50;4.60;;;0.80;;
842;SDS011;407;48.884;9.126;2023-04-24T02:08:15;4.80;;;0.90;;
842;SDS011;407;48.884;9.126;2023-04-24T02:10:41;5.00;;;0.90;;
842;SDS011;407;48.884;9.126;2023-04-24T02:13:06;5.20;;;1.00;;
842;SDS011;407;48.884;9.126;2023-04-24T02:15:32;4.55;;;0.80;;
842;SDS011;407;48.884;9.126;2023-04-24T02:17:58;4.10;;;0.73;;
842;SDS011;407;48.884;9.126;2023-04-24T02:20:23;4.30;;;0.70;;
842;SDS011;407;48.884;9.126;2023-04-24T02:22:49;6.30;;;0.80;;
842;SDS011;407;48.884;9.126;2023-04-24T02:25:15;4.50;;;0.60;;
842;SDS011;407;48.884;9.126;2023-04-24T02:27:41;4.67;;;1.00;;
842;SDS011;407;48.884;9.126;2023-04-24T02:30:07;4.30;;;0.60;;
842;SDS011;407;48.884;9.126;2023-04-24T02:32:33;4.50;;;0.60;;
842;SDS011;407;48.884;9.126;2023-04-24T02:34:59;5.40;;;0.80;;
842;SDS011;407;48.884;9.126;2023-04-24T02:37:24;4.30;;;0.90;;
842;SDS011;407;48.884;9.126;2023-04-24T02:39:50;5.30;;;0.80;;
842;SDS011;407;48.884;9.126;2023-04-24T02:42:17;4.20;;;0.70;;
842;SDS011;407;48.884;9.126;2023-04-24T02:44:42;5.00;;;0.85;;
842;SDS011;407;48.884;9.126;2023-04-24T02:47:08;4.70;;;0.90;;
842;SDS011;407;48.884;9.126;2023-04-24T02:49:33;4.95;;;0.82;;
842;SDS011;407;48.884;9.126;2023-04-24T02:51:59;4.80;;;1.10;;
842;SDS011;407;48.884;9.126;2023-04-24T02:54:25;4.00;;;0.70;;
842;SDS011;407;48.884;9.126;2023-04-24T02:56:50;5.33;;;1.00;;
842;SDS011;407;48.884;9.126;2023-04-24T02:59:16;7.20;;;0.90;;
842;SDS011;407;48.884;9.126;2023-04-24T03:01:41;4.67;;;0.73;;
842;SDS011;407;48.884;9.126;2023-04-24T03:04:08;4.40;;;0.80;;
842;SDS011;407;48.884;9.126;2023-04-24T03:06:33;5.47;;;0.90;;
842;SDS011;407;48.884;9.126;2023-04-24T03:09:01;3.90;;;0.70;;
842;SDS011;407;48.884;9.126;2023-04-24T03:11:26;4.97;;;0.90;;
842;SDS011;407;48.884;9.126;2023-04-24T03:13:52;4.20;;;0.83;;
842;SDS011;407;48.884;9.126;2023-04-24T03:16:17;4.43;;;0.75;;
842;SDS011;407;48.884;9.126;2023-04-24T03:18:44;4.43;;;0.80;;
842;SDS011;407;48.884;9.126;2023-04-24T03:21:10;5.25;;;1.00;;
842;SDS011;407;48.884;9.126;2023-04-24T03:23:36;5.20;;;0.90;;
842;SDS011;407;48.884;9.126;2023-04-24T03:26:02;5.80;;;1.00;;
842;SDS011;407;48.884;9.126;2023-04-24T03:28:28;4.75;;;1.00;;
842;SDS011;407;48.884;9.126;2023-04-24T03:30:53;4.90;;;1.00;;
842;SDS011;407;48.884;9.126;2023-04-24T03:33:20;4.70;;;0.90;;
842;SDS011;407;48.884;9.126;2023-04-24T03:35:46;5.82;;;0.70;;
842;SDS011;407;48.884;9.126;2023-04-24T03:38:11;5.40;;;0.98;;
842;SDS011;407;48.884;9.126;2023-04-24T03:40:37;4.37;;;0.90;;
842;SDS011;407;48.884;9.126;2023-04-24T03:43:03;4.80;;;0.85;;
842;SDS011;407;48.884;9.126;2023-04-24T03:45:28;6.20;;;0.80;;
842;SDS011;407;48.884;9.126;2023-04-24T03:47:54;4.30;;;0.70;;
842;SDS011;407;48.884;9.126;2023-04-24T03:50:19;4.82;;;0.85;;
842;SDS011;407;48.884;9.126;2023-04-24T03:52:45;4.50;;;0.80;;
842;SDS011;407;48.884;9.126;2023-04-24T03:55:11;4.07;;;0.70;;
842;SDS011;407;48.884;9.126;2023-04-24T03:57:38;4.20;;;0.80;;
842;SDS011;407;48.884;9.126;2023-04-24T04:00:05;5.30;;;0.90;;
842;SDS011;407;48.884;9.126;2023-04-24T04:02:31;4.07;;;0.70;;
842;SDS011;407;48.884;9.126;2023-04-24T04:04:57;4.00;;;0.70;;
842;SDS011;407;48.884;9.126;2023-04-24T04:07:22;4.50;;;0.80;;
842;SDS011;407;48.884;9.126;2023-04-24T04:09:48;4.10;;;0.70;;
842;SDS011;407;48.884;9.126;2023-04-24T04:12:13;4.40;;;0.80;;
842;SDS011;407;48.884;9.126;2023-04-24T04:14:39;4.20;;;0.80;;
842;SDS011;407;48.884;9.126;2023-04-24T04:17:05;6.05;;;1.10;;
842;SDS011;407;48.884;9.126;2023-04-24T04:19:30;4.70;;;0.80;;
842;SDS011;407;48.884;9.126;2023-04-24T04:21:56;5.30;;;1.10;;
842;SDS011;407;48.884;9.126;2023-04-24T04:24:21;5.40;;;1.13;;
842;SDS011;407;48.884;9.126;2023-04-24T04:26:47;5.10;;;1.00;;
842;SDS011;407;48.884;9.126;2023-04-24T04:29:15;4.70;;;1.00;;
842;SDS011;407;48.884;9.126;2023-04-24T04:31:42;4.50;;;1.00;;
842;SDS011;407;48.884;9.126;2023-04-24T04:34:08;5.35;;;1.10;;
842;SDS011;407;48.884;9.126;2023-04-24T04:36:34;5.00;;;1.10;;
842;SDS011;407;48.884;9.126;2023-04-24T04:39:01;5.18;;;1.30;;
842;SDS011;407;48.884;9.126;2023-04-24T04:41:28;4.28;;;0.80;;
842;SDS011;407;48.884;9.126;2023-04-24T04:43:53;3.70;;;0.60;;
842;SDS011;407;48.884;9.126;2023-04-24T04:46:19;6.43;;;1.43;;
842;SDS011;407;48.884;9.126;2023-04-24T04:48:45;5.47;;;1.17;;
842;SDS011;407;48.884;9.126;2023-04-24T04:51:11;5.13;;;1.07;;
842;SDS011;407;48.884;9.126;2023-04-24T04:53:36;4.50;;;1.20;;
842;SDS011;407;48.884;9.126;2023-04-24T04:56:02;4.60;;;1.10;;
842;SDS011;407;48.884;9.126;2023-04-24T04:58:28;6.07;;;1.08;;
842;SDS011;407;48.884;9.126;2023-04-24T05:00:53;6.40;;;1.30;;
842;SDS011;407;48.884;9.126;2023-04-24T05:03:19;4.97;;;1.30;;
842;SDS011;407;48.884;9.126;2023-04-24T05:05:44;6.00;;;1.60;;
842;SDS011;407;48.884;9.126;2023-04-24T05:08:10;6.22;;;1.00;;
842;SDS011;407;48.884;9.126;2023-04-24T05:10:36;4.80;;;1.00;;
842;SDS011;407;48.884;9.126;2023-04-24T05:13:02;4.63;;;1.30;;
842;SDS011;407;48.884;9.126;2023-04-24T05:15:29;4.22;;;1.17;;
842;SDS011;407;48.884;9.126;2023-04-24T05:17:55;4.82;;;1.15;;
842;SDS011;407;48.884;9.126;2023-04-24T05:20:20;5.40;;;1.30;;
842;SDS011;407;48.884;9.126;2023-04-24T05:22:46;4.97;;;1.50;;
842;SDS011;407;48.884;9.126;2023-04-24T05:25:12;6.10;;;1.90;;
842;SDS011;407;48.884;9.126;2023-04-24T05:27:37;4.20;;;1.00;;
842;SDS011;407;48.884;9.126;2023-04-24T05:30:04;4.53;;;1.20;;
842;SDS011;407;48.884;9.126;2023-04-24T05:32:30;8.25;;;1.45;;
842;SDS011;407;48.884;9.126;2023-04-24T05:34:55;6.27;;;1.80;;
842;SDS011;407;48.884;9.126;2023-04-24T05:37:21;5.63;;;1.60;;
842;SDS011;407;48.884;9.126;2023-04-24T05:39:47;5.40;;;0.93;;
842;SDS011;407;48.884;9.126;2023-04-24T05:42:12;5.30;;;1.50;;
842;SDS011;407;48.884;9.126;2023-04-24T05:44:38;7.00;;;1.50;;
842;SDS011;407;48.884;9.126;2023-04-24T05:47:03;5.73;;;1.80;;
842;SDS011;407;48.884;9.126;2023-04-24T05:49:29;5.30;;;1.55;;
842;SDS011;407;48.884;9.126;2023-04-24T05:51:55;6.40;;;1.70;;
842;SDS011;407;48.884;9.126;2023-04-24T05:54:22;5.35;;;1.70;;
842;SDS011;407;48.884;9.126;2023-04-24T05:56:48;5.30;;;1.63;;
842;SDS011;407;48.884;9.126;2023-04-24T05:59:15;5.53;;;1.67;;
842;SDS011;407;48.884;9.126;2023-04-24T06:01:40;4.77;;;1.30;;
842;SDS011;407;48.884;9.126;2023-04-24T06:04:06;5.82;;;1.55;;
842;SDS011;407;48.884;9.126;2023-04-24T06:06:32;4.87;;;1.30;;
842;SDS011;407;48.884;9.126;2023-04-24T06:08:58;4.90;;;1.30;;
842;SDS011;407;48.884;9.126;2023-04-24T06:11:24;5.30;;;1.50;;
842;SDS011;407;48.884;9.126;2023-04-24T06:13:49;5.70;;;1.48;;
842;SDS011;407;48.884;9.126;2023-04-24T06:16:15;5.32;;;1.58;;
842;SDS011;407;48.884;9.126;2023-04-24T06:18:41;4.82;;;1.42;;
842;SDS011;407;48.884;9.126;2023-04-24T06:21:06;5.80;;;1.70;;
842;SDS011;407;48.884;9.126;2023-04-24T06:23:32;5.40;;;1.60;;
842;SDS011;407;48.884;9.126;2023-04-24T06:25:58;6.70;;;1.75;;
842;SDS011;407;48.884;9.126;2023-04-24T06:28:24;6.10;;;1.60;;
842;SDS011;407;48.884;9.126;2023-04-24T06:30:50;5.70;;;1.58;;
842;SDS011;407;48.884;9.126;2023-04-24T06:33:16;5.43;;;1.37;;
842;SDS011;407;48.884;9.126;2023-04-24T06:35:42;6.07;;;1.80;;
842;SDS011;407;48.884;9.126;2023-04-24T06:38:07;6.57;;;1.40;;
842;SDS011;407;48.884;9.126;2023-04-24T06:40:33;5.47;;;1.70;;
842;SDS011;407;48.884;9.126;2023-04-24T06:42:59;5.80;;;1.60;;
842;SDS011;407;48.884;9.126;2023-04-24T06:45:27;5.47;;;1.50;;
842;SDS011;407;48.884;9.126;2023-04-24T06:47:53;5.60;;;1.50;;
842;SDS011;407;48.884;9.126;2023-04-24T06:50:19;5.53;;;1.60;;
842;SDS011;407;48.884;9.126;2023-04-24T06:52:45;4.90;;;1.20;;
842;SDS011;407;48.884;9.126;2023-04-24T06:55:10;5.40;;;1.70;;
842;SDS011;407;48.884;9.126;2023-04-24T06:57:36;6.32;;;1.63;;
842;SDS011;407;48.884;9.126;2023-04-24T07:00:03;6.33;;;1.80;;
842;SDS011;407;48.884;9.126;2023-04-24T07:02:30;6.25;;;1.60;;
842;SDS011;407;48.884;9.126;2023-04-24T07:04:55;6.60;;;1.80;;
842;SDS011;407;48.884;9.126;2023-04-24T07:07:22;6.07;;;1.80;;
842;SDS011;407;48.884;9.126;2023-04-24T07:09:48;6.53;;;1.80;;
842;SDS011;407;48.884;9.126;2023-04-24T07:12:15;6.15;;;1.75;;
842;SDS011;407;48.884;9.126;2023-04-24T07:14:42;5.85;;;1.80;;
842;SDS011;407;48.884;9.126;2023-04-24T07:17:08;6.40;;;1.70;;
842;SDS011;407;48.884;9.126;2023-04-24T07:19:34;5.80;;;1.80;;
842;SDS011;407;48.884;9.126;2023-04-24T07:22:02;5.93;;;1.60;;
842;SDS011;407;48.884;9.126;2023-04-24T07:24:28;5.60;;;1.50;;
842;SDS011;407;48.884;9.126;2023-04-24T07:26:54;5.28;;;1.50;;
842;SDS011;407;48.884;9.126;2023-04-24T07:29:20;5.60;;;1.60;;
842;SDS011;407;48.884;9.126;2023-04-24T07:31:46;5.10;;;1.37;;
842;SDS011;407;48.884;9.126;2023-04-24T07:34:12;8.88;;;1.40;;
842;SDS011;407;48.884;9.126;2023-04-24T07:36:37;6.70;;;1.50;;
842;SDS011;407;48.884;9.126;2023-04-24T07:39:03;5.30;;;1.13;;
842;SDS011;407;48.884;9.126;2023-04-24T07:41:30;5.93;;;1.33;;
842;SDS011;407;48.884;9.126;2023-04-24T07:43:55;8.20;;;1.50;;
842;SDS011;407;48.884;9.126;2023-04-24T07:46:21;5.27;;;1.30;;
842;SDS011;407;48.884;9.126;2023-04-24T07:48:48;5.45;;;0.95;;
842;SDS011;407;48.884;9.126;2023-04-24T07:51:14;7.03;;;1.40;;
842;SDS011;407;48.884;9.126;2023-04-24T07:53:40;5.25;;;1.35;;
842;SDS011;407;48.884;9.126;2023-04-24T07:56:06;5.20;;;1.30;;
842;SDS011;407;48.884;9.126;2023-04-24T07:58:32;5.40;;;1.40;;
842;SDS011;407;48.884;9.126;2023-04-24T08:00:58;5.70;;;1.40;;
842;SDS011;407;48.884;9.126;2023-04-24T08:03:24;5.30;;;1.20;;
842;SDS011;407;48.884;9.126;2023-04-24T08:05:50;4.50;;;1.10;;
842;SDS011;407;48.884;9.126;2023-04-24T08:08:17;6.07;;;1.63;;
842;SDS011;407;48.884;9.126;2023-04-24T08:10:44;7.22;;;1.30;;
842;SDS011;407;48.884;9.126;2023-04-24T08:13:10;5.30;;;1.40;;
842;SDS011;407;48.884;9.126;2023-04-24T08:15:36;5.30;;;1.10;;
842;SDS011;407;48.884;9.126;2023-04-24T08:18:02;5.10;;;1.00;;
842;SDS011;407;48.884;9.126;2023-04-24T08:20:28;5.25;;;1.05;;
842;SDS011;407;48.884;9.126;2023-04-24T08:22:54;5.30;;;1.43;;
842;SDS011;407;48.884;9.126;2023-04-24T08:25:20;6.20;;;1.65;;
842;SDS011;407;48.884;9.126;2023-04-24T08:27:47;5.28;;;1.20;;
842;SDS011;407;48.884;9.126;2023-04-24T08:30:13;5.00;;;1.03;;
842;SDS011;407;48.884;9.126;2023-04-24T08:32:39;6.70;;;1.30;;
842;SDS011;407;48.884;9.126;2023-04-24T08:35:05;6.07;;;1.30;;
842;SDS011;407;48.884;9.126;2023-04-24T08:37:33;5.43;;;1.10;;
842;SDS011;407;48.884;9.126;2023-04-24T08:39:59;5.00;;;1.10;;
842;SDS011;407;48.884;9.126;2023-04-24T08:42:24;5.27;;;1.07;;
842;SDS011;407;48.884;9.126;2023-04-24T08:44:53;4.90;;;1.00;;
842;SDS011;407;48.884;9.126;2023-04-24T08:47:20;4.85;;;1.02;;
842;SDS011;407;48.884;9.126;2023-04-24T08:49:46;5.30;;;1.10;;
842;SDS011;407;48.884;9.126;2023-04-24T08:52:13;5.90;;;1.70;;
842;SDS011;407;48.884;9.126;2023-04-24T08:54:41;4.50;;;0.80;;
842;SDS011;407;48.884;9.126;2023-04-24T08:57:08;6.50;;;1.23;;
842;SDS011;407;48.884;9.126;2023-04-24T08:59:36;5.45;;;1.15;;
842;SDS011;407;48.884;9.126;2023-04-24T09:02:03;5.63;;;1.25;;
842;SDS011;407;48.884;9.126;2023-04-24T09:04:29;4.80;;;1.00;;
842;SDS011;407;48.884;9.126;2023-04-24T09:06:57;5.90;;;1.10;;
842;SDS011;407;48.884;9.126;2023-04-24T09:09:24;4.88;;;0.90;;
842;SDS011;407;48.884;9.126;2023-04-24T09:11:51;4.80;;;1.10;;
842;SDS011;407;48.884;9.126;2023-04-24T09:14:19;5.55;;;1.27;;
842;SDS011;407;48.884;9.126;2023-04-24T09:16:46;5.40;;;1.10;;
842;SDS011;407;48.884;9.126;2023-04-24T09:19:11;5.00;;;1.00;;
842;SDS011;407;48.884;9.126;2023-04-24T09:21:37;5.10;;;1.30;;
842;SDS011;407;48.884;9.126;2023-04-24T09:24:05;6.82;;;0.90;;
842;SDS011;407;48.884;9.126;2023-04-24T09:26:33;7.22;;;1.25;;
842;SDS011;407;48.884;9.126;2023-04-24T09:29:01;4.70;;;0.90;;
842;SDS011;407;48.884;9.126;2023-04-24T09:31:28;4.60;;;0.80;;
842;SDS011;407;48.884;9.126;2023-04-24T09:33:58;4.88;;;0.80;;
842;SDS011;407;48.884;9.126;2023-04-24T09:36:30;4.57;;;0.87;;
842;SDS011;407;48.884;9.126;2023-04-24T09:38:58;5.20;;;1.20;;
842;SDS011;407;48.884;9.126;2023-04-24T09:41:25;5.53;;;0.82;;
842;SDS011;407;48.884;9.126;2023-04-24T09:43:53;5.50;;;1.50;;
842;SDS011;407;48.884;9.126;2023-04-24T09:46:20;4.82;;;0.93;;
842;SDS011;407;48.884;9.126;2023-04-24T09:48:47;4.65;;;0.90;;
842;SDS011;407;48.884;9.126;2023-04-24T09:51:12;4.70;;;0.90;;
842;SDS011;407;48.884;9.126;2023-04-24T09:53:44;5.60;;;1.00;;
842;SDS011;407;48.884;9.126;2023-04-24T09:56:11;5.07;;;1.27;;
842;SDS011;407;48.884;9.126;2023-04-24T09:58:39;5.13;;;1.10;;
842;SDS011;407;48.884;9.126;2023-04-24T10:01:05;5.50;;;1.10;;
842;SDS011;407;48.884;9.126;2023-04-24T10:03:31;5.73;;;1.23;;
842;SDS011;407;48.884;9.126;2023-04-24T10:05:59;6.40;;;1.10;;
842;SDS011;407;48.884;9.126;2023-04-24T10:08:26;5.50;;;1.10;;
842;SDS011;407;48.884;9.126;2023-04-24T10:10:59;6.10;;;1.20;;
842;SDS011;407;48.884;9.126;2023-04-24T10:13:25;4.60;;;0.75;;
842;SDS011;407;48.884;9.126;2023-04-24T10:15:51;5.30;;;1.00;;
842;SDS011;407;48.884;9.126;2023-04-24T10:18:17;4.80;;;0.90;;
842;SDS011;407;48.884;9.126;2023-04-24T10:20:43;5.07;;;1.08;;
842;SDS011;407;48.884;9.126;2023-04-24T10:23:10;5.10;;;1.10;;
842;SDS011;407;48.884;9.126;2023-04-24T10:25:37;5.15;;;1.10;;
842;SDS011;407;48.884;9.126;2023-04-24T10:28:02;5.47;;;1.30;;
842;SDS011;407;48.884;9.126;2023-04-24T10:30:33;6.20;;;1.40;;
842;SDS011;407;48.884;9.126;2023-04-24T10:33:02;5.28;;;1.20;;
842;SDS011;407;48.884;9.126;2023-04-24T10:35:37;5.35;;;1.17;;
842;SDS011;407;48.884;9.126;2023-04-24T10:38:06;5.90;;;1.30;;
842;SDS011;407;48.884;9.126;2023-04-24T10:40:35;5.47;;;1.35;;
842;SDS011;407;48.884;9.126;2023-04-24T10:43:07;5.57;;;1.13;;
842;SDS011;407;48.884;9.126;2023-04-24T10:45:36;5.10;;;0.98;;
842;SDS011;407;48.884;9.126;2023-04-24T10:50:29;5.30;;;1.00;;
842;SDS011;407;48.884;9.126;2023-04-24T10:53:09;5.10;;;1.30;;
842;SDS011;407;48.884;9.126;2023-04-24T10:55:43;9.40;;;1.50;;
842;SDS011;407;48.884;9.126;2023-04-24T10:58:10;6.30;;;1.33;;
842;SDS011;407;48.884;9.126;2023-04-24T11:00:37;6.20;;;1.43;;
842;SDS011;407;48.884;9.126;2023-04-24T11:03:05;5.60;;;1.10;;
842;SDS011;407;48.884;9.126;2023-04-24T11:06:06;5.13;;;1.13;;
842;SDS011;407;48.884;9.126;2023-04-24T11:08:29;7.30;;;1.40;;
842;SDS011;407;48.884;9.126;2023-04-24T11:11:08;5.40;;;1.30;;
842;SDS011;407;48.884;9.126;2023-04-24T11:16:21;5.70;;;1.10;;
842;SDS011;407;48.884;9.126;2023-04-24T11:21:44;5.10;;;1.00;;
842;SDS011;407;48.884;9.126;2023-04-24T11:24:30;5.43;;;1.25;;
842;SDS011;407;48.884;9.126;2023-04-24T11:27:12;4.97;;;1.10;;
842;SDS011;407;48.884;9.126;2023-04-24T11:32:15;6.30;;;1.23;;
842;SDS011;407;48.884;9.126;2023-04-24T11:34:49;6.05;;;1.70;;
842;SDS011;407;48.884;9.126;2023-04-24T11:37:23;6.55;;;2.00;;
842;SDS011;407;48.884;9.126;2023-04-24T11:39:55;6.43;;;1.50;;
842;SDS011;407;48.884;9.126;2023-04-24T11:42:23;5.40;;;1.50;;
842;SDS011;407;48.884;9.126;2023-04-24T11:44:54;7.30;;;1.00;;
842;SDS011;407;48.884;9.126;2023-04-24T11:47:26;5.38;;;1.17;;
842;SDS011;407;48.884;9.126;2023-04-24T11:49:57;5.65;;;1.00;;
842;SDS011;407;48.884;9.126;2023-04-24T11:52:23;4.97;;;1.10;;
842;SDS011;407;48.884;9.126;2023-04-24T11:54:49;5.00;;;1.10;;
842;SDS011;407;48.884;9.126;2023-04-24T11:57:15;6.57;;;1.40;;
842;SDS011;407;48.884;9.126;2023-04-24T11:59:41;5.57;;;1.35;;
842;SDS011;407;48.884;9.126;2023-04-24T12:02:07;6.35;;;1.42;;
842;SDS011;407;48.884;9.126;2023-04-24T12:04:40;8.25;;;1.52;;
842;SDS011;407;48.884;9.126;2023-04-24T12:07:08;5.50;;;1.40;;
842;SDS011;407;48.884;9.126;2023-04-24T12:09:41;5.60;;;1.50;;
842;SDS011;407;48.884;9.126;2023-04-24T12:12:12;6.00;;;1.67;;
842;SDS011;407;48.884;9.126;2023-04-24T12:14:43;5.80;;;1.30;;
842;SDS011;407;48.884;9.126;2023-04-24T12:17:09;5.53;;;1.20;;
842;SDS011;407;48.884;9.126;2023-04-24T12:19:35;6.10;;;1.30;;
842;SDS011;407;48.884;9.126;2023-04-24T12:22:02;8.55;;;1.77;;
842;SDS011;407;48.884;9.126;2023-04-24T12:24:29;5.20;;;1.27;;
842;SDS011;407;48.884;9.126;2023-04-24T12:26:56;5.90;;;1.70;;
842;SDS011;407;48.884;9.126;2023-04-24T12:29:23;5.50;;;1.13;;
842;SDS011;407;48.884;9.126;2023-04-24T12:31:49;5.88;;;1.00;;
842;SDS011;407;48.884;9.126;2023-04-24T12:34:19;5.05;;;0.98;;
842;SDS011;407;48.884;9.126;2023-04-24T12:36:46;7.20;;;1.70;;
842;SDS011;407;48.884;9.126;2023-04-24T12:39:15;5.20;;;1.20;;
842;SDS011;407;48.884;9.126;2023-04-24T12:44:33;7.60;;;1.80;;
842;SDS011;407;48.884;9.126;2023-04-24T12:47:00;7.38;;;1.35;;
842;SDS011;407;48.884;9.126;2023-04-24T12:49:27;5.40;;;1.30;;
842;SDS011;407;48.884;9.126;2023-04-24T12:51:55;5.88;;;1.60;;
842;SDS011;407;48.884;9.126;2023-04-24T12:54:21;6.45;;;1.70;;
842;SDS011;407;48.884;9.126;2023-04-24T12:56:47;5.00;;;1.10;;
842;SDS011;407;48.884;9.126;2023-04-24T12:59:14;5.17;;;0.83;;
842;SDS011;407;48.884;9.126;2023-04-24T13:01:40;5.30;;;0.90;;
842;SDS011;407;48.884;9.126;2023-04-24T13:04:06;4.93;;;0.87;;
842;SDS011;407;48.884;9.126;2023-04-24T13:06:32;5.45;;;1.38;;
842;SDS011;407;48.884;9.126;2023-04-24T13:08:57;5.67;;;1.73;;
842;SDS011;407;48.884;9.126;2023-04-24T13:11:23;5.40;;;1.30;;
842;SDS011;407;48.884;9.126;2023-04-24T13:13:49;6.80;;;1.77;;
842;SDS011;407;48.884;9.126;2023-04-24T13:16:15;5.40;;;1.42;;
842;SDS011;407;48.884;9.126;2023-04-24T13:18:41;5.60;;;1.38;;
842;SDS011;407;48.884;9.126;2023-04-24T13:21:06;7.80;;;2.20;;
842;SDS011;407;48.884;9.126;2023-04-24T13:23:32;6.50;;;1.60;;
842;SDS011;407;48.884;9.126;2023-04-24T13:25:58;5.95;;;1.60;;
842;SDS011;407;48.884;9.126;2023-04-24T13:28:26;6.40;;;1.90;;
842;SDS011;407;48.884;9.126;2023-04-24T13:30:53;6.63;;;2.00;;
842;SDS011;407;48.884;9.126;2023-04-24T13:33:19;6.68;;;2.10;;
842;SDS011;407;48.884;9.126;2023-04-24T13:35:45;8.17;;;2.80;;
842;SDS011;407;48.884;9.126;2023-04-24T13:38:10;7.18;;;2.30;;
842;SDS011;407;48.884;9.126;2023-04-24T13:40:36;7.15;;;2.50;;
842;SDS011;407;48.884;9.126;2023-04-24T13:43:02;7.10;;;2.20;;
842;SDS011;407;48.884;9.126;2023-04-24T13:45:28;6.72;;;2.30;;
842;SDS011;407;48.884;9.126;2023-04-24T13:47:53;8.33;;;2.47;;
842;SDS011;407;48.884;9.126;2023-04-24T13:50:19;7.30;;;2.20;;
842;SDS011;407;48.884;9.126;2023-04-24T13:52:45;5.93;;;1.90;;
842;SDS011;407;48.884;9.126;2023-04-24T13:55:11;5.80;;;1.70;;
842;SDS011;407;48.884;9.126;2023-04-24T13:57:36;7.05;;;2.10;;
842;SDS011;407;48.884;9.126;2023-04-24T14:00:02;8.13;;;2.53;;
842;SDS011;407;48.884;9.126;2023-04-24T14:02:28;6.00;;;1.90;;
842;SDS011;407;48.884;9.126;2023-04-24T14:04:56;6.35;;;1.80;;
842;SDS011;407;48.884;9.126;2023-04-24T14:07:21;6.70;;;1.92;;
842;SDS011;407;48.884;9.126;2023-04-24T14:09:47;5.47;;;1.33;;
842;SDS011;407;48.884;9.126;2023-04-24T14:12:16;5.65;;;1.52;;
842;SDS011;407;48.884;9.126;2023-04-24T14:14:44;5.40;;;1.50;;
842;SDS011;407;48.884;9.126;2023-04-24T14:17:12;5.40;;;1.50;;
842;SDS011;407;48.884;9.126;2023-04-24T14:19:37;8.00;;;2.05;;
842;SDS011;407;48.884;9.126;2023-04-24T14:22:03;5.70;;;1.67;;
842;SDS011;407;48.884;9.126;2023-04-24T14:24:28;5.70;;;1.80;;
842;SDS011;407;48.884;9.126;2023-04-24T14:26:54;5.50;;;1.50;;
842;SDS011;407;48.884;9.126;2023-04-24T14:29:21;6.00;;;1.65;;
842;SDS011;407;48.884;9.126;2023-04-24T14:31:47;8.15;;;2.10;;
842;SDS011;407;48.884;9.126;2023-04-24T14:34:13;5.70;;;1.40;;
842;SDS011;407;48.884;9.126;2023-04-24T14:36:39;5.65;;;1.55;;
842;SDS011;407;48.884;9.126;2023-04-24T14:39:05;6.70;;;1.73;;
842;SDS011;407;48.884;9.126;2023-04-24T14:41:32;5.78;;;1.52;;
842;SDS011;407;48.884;9.126;2023-04-24T14:44:01;6.55;;;1.50;;
842;SDS011;407;48.884;9.126;2023-04-24T14:46:27;5.53;;;1.67;;
842;SDS011;407;48.884;9.126;2023-04-24T14:48:55;6.50;;;1.50;;
842;SDS011;407;48.884;9.126;2023-04-24T14:51:23;5.45;;;1.30;;
842;SDS011;407;48.884;9.126;2023-04-24T14:53:50;4.90;;;1.05;;
842;SDS011;407;48.884;9.126;2023-04-24T14:56:16;5.55;;;1.50;;
842;SDS011;407;48.884;9.126;2023-04-24T14:58:42;6.13;;;1.33;;
842;SDS011;407;48.884;9.126;2023-04-24T15:01:08;5.93;;;1.83;;
842;SDS011;407;48.884;9.126;2023-04-24T15:03:33;5.23;;;1.30;;
842;SDS011;407;48.884;9.126;2023-04-24T15:05:59;5.85;;;1.60;;
842;SDS011;407;48.884;9.126;2023-04-24T15:08:26;8.75;;;1.67;;
842;SDS011;407;48.884;9.126;2023-04-24T15:10:51;5.65;;;1.25;;
842;SDS011;407;48.884;9.126;2023-04-24T15:13:17;5.43;;;1.37;;
842;SDS011;407;48.884;9.126;2023-04-24T15:15:43;5.47;;;1.45;;
842;SDS011;407;48.884;9.126;2023-04-24T15:18:11;6.00;;;1.60;;
842;SDS011;407;48.884;9.126;2023-04-24T15:20:37;7.00;;;1.70;;
842;SDS011;407;48.884;9.126;2023-04-24T15:23:04;5.68;;;1.60;;
842;SDS011;407;48.884;9.126;2023-04-24T15:25:30;5.60;;;1.43;;
842;SDS011;407;48.884;9.126;2023-04-24T15:27:56;6.10;;;1.55;;
842;SDS011;407;48.884;9.126;2023-04-24T15:30:23;5.20;;;1.30;;
842;SDS011;407;48.884;9.126;2023-04-24T15:32:49;5.10;;;1.30;;
842;SDS011;407;48.884;9.126;2023-04-24T15:35:15;5.75;;;1.30;;
842;SDS011;407;48.884;9.126;2023-04-24T15:37:42;4.80;;;0.80;;
842;SDS011;407;48.884;9.126;2023-04-24T15:40:08;5.20;;;1.30;;
842;SDS011;407;48.884;9.126;2023-04-24T15:42:36;5.82;;;1.20;;
842;SDS011;407;48.884;9.126;2023-04-24T15:45:02;4.75;;;1.00;;
842;SDS011;407;48.884;9.126;2023-04-24T15:47:29;4.70;;;0.80;;
842;SDS011;407;48.884;9.126;2023-04-24T15:49:56;5.28;;;1.10;;
842;SDS011;407;48.884;9.126;2023-04-24T15:52:24;5.40;;;1.17;;
842;SDS011;407;48.884;9.126;2023-04-24T15:54:49;5.13;;;1.20;;